Terminal Aerodrome Forecast
Issued by NWS

Home | Current Version | Previous Version | Text Only | Print | Product List | Glossary On
Versions: 1 2 3 4 5 6 7 8 9 10 11 12 13 14 15 16 17 18
000
FTUS42 KJAX 181744
TAFCRG
TAF
KCRG 181744Z 1818/1918 19010G15KT P6SM SCT045
     FM190000 22005KT P6SM FEW250
     FM190800 21008KT P6SM SCT040 SCT250
     FM191100 24011KT P6SM VCSH SCT020 BKN080 PROB30 1912/1915 5SM
      SHRA BR SCT010 BKN020
     FM191600 32013G21KT P6SM SCT050 BKN090=

USA.gov is the U.S. government's official web portal to all federal, state and local government web resources and services.